Briefing drone pour Roche-la-moliere

Rechercher une autre localisation

Conditions de vol :


Nous sommes le : Dimanche 07 mars 2021
Il est 00:13 UTC (01:13 LT)

Lever de soleil : 05:42 UTC (06:42 LT)
Coucher de soleil : 18:04 UTC (19:04 LT)

Météo

L'essentiel des conditions de vol

VIGILANCE MÉTÉO FRANCE - Loire (42)
Pas de vigilances particulieres
CARTE TEMSI
CARTES DES FRONTS
METAR de LFMH
LFMH 070000Z AUTO 17008KT 5000 BR FEW054 01/M00 Q1024

Date d'émission: 07/03/2021
Heure d'émission: 00:00 UTC
Vent: 170° pour 8 KT (15 km/h)
Visibilité horizontale: 5000 m
Plafond :
- Peu de nuages à 5400ft (1646m)
Température: 1 °C
Point de rosée: 0 °C
Humidité: 93%
Pression (QNH): 1024 hPa
Conditions: Brume
TAF de LFMH
LFMH 062004Z 0620/0718 CNL

Conditions prévues :

Heure d'émission : Bulletin éffectué le 06 à 20:00 UTC
Prévision : Valide du 06 a 20:00 UTC au 07 a 18:00 UTC
Nuages : à 0ft (0 m)
WEBCAM POUR ROCHE-LA-MOLIERE

Réglementation

Voler en sécurité

CARTES AERONAUTIQUE 1/500.000
CARTES VAC (LFMH)
SUP AIP




Chargement des AIP...
NOTAM (ROCHE-LA-MOLIERE + Terrain à proximité / FIR )




Chargement des NOTAMS...
CONTACT PREFECTURE 42


Avertissement : Les données mises à disposition sont indicatives. Oxygène Drone ne pourra être tenu responsable de dégâts causés aux biens et aux personnes.